Time;durP1;ratioP1;P1;durP2;ratioP2;P2;SDS_P1;SDS_P2;PMS_P1;PMS_P2;Temp;Humidity;BMP_temperature;BMP_pressure;BME280_temperature;BME280_humidity;BME280_pressure;Samples;Min_cycle;Max_cycle;Signal;HPM_P1;HPM_P2
2022/04/29 00:00:08;;;;;;;7.20;1.55;;;;;;;;;;2076393;28;20491;-80
2022/04/29 00:01:30;;;;;;;7.40;1.83;;;;;;;;;;2070075;28;20034;-80
2022/04/29 00:02:51;;;;;;;14.23;2.15;;;;;;;;;;2077623;28;20014;-82
2022/04/29 00:04:10;;;;;;;5.68;1.58;;;;;;;;;;2069377;28;20038;-80
2022/04/29 00:05:29;;;;;;;5.30;1.75;;;;;;;;;;2070307;28;20030;-80
2022/04/29 00:06:48;;;;;;;4.57;1.58;;;;;;;;;;2067394;28;20026;-80
2022/04/29 00:08:08;;;;;;;1.50;1.10;;;;;;;;;;2078052;28;20029;-81
2022/04/29 00:09:27;;;;;;;6.88;1.60;;;;;;;;;;2071986;28;20026;-81
2022/04/29 00:10:46;;;;;;;3.97;1.63;;;;;;;;;;2078023;28;20030;-80
2022/04/29 00:12:07;;;;;;;4.25;1.30;;;;;;;;;;2069696;28;20022;-81
2022/04/29 00:13:26;;;;;;;2.05;1.00;;;;;;;;;;2070085;28;20164;-80
2022/04/29 00:14:45;;;;;;;6.15;1.60;;;;;;;;;;2077896;28;20033;-81
2022/04/29 00:16:05;;;;;;;4.95;1.60;;;;;;;;;;2071275;28;20399;-81
2022/04/29 00:17:23;;;;;;;9.02;2.20;;;;;;;;;;2068799;28;20038;-80
2022/04/29 00:18:43;;;;;;;3.20;1.48;;;;;;;;;;2071978;28;20030;-80
2022/04/29 00:20:02;;;;;;;3.78;1.60;;;;;;;;;;2069070;28;20030;-81
2022/04/29 00:21:23;;;;;;;4.15;1.50;;;;;;;;;;2077881;28;20029;-80
2022/04/29 00:22:44;;;;;;;4.00;1.40;;;;;;;;;;2065068;28;20049;-80
2022/04/29 00:24:03;;;;;;;5.07;1.02;;;;;;;;;;2068426;28;20463;-80
2022/04/29 00:25:22;;;;;;;4.50;1.15;;;;;;;;;;2068881;28;20034;-80
2022/04/29 00:26:41;;;;;;;7.90;1.50;;;;;;;;;;2068774;28;20042;-80
2022/04/29 00:28:00;;;;;;;5.30;1.50;;;;;;;;;;2067507;28;20507;-79
2022/04/29 00:29:19;;;;;;;6.85;1.70;;;;;;;;;;2069251;28;20030;-80
2022/04/29 00:30:43;;;;;;;6.70;1.77;;;;;;;;;;2068858;28;20026;-80
2022/04/29 00:32:03;;;;;;;6.60;1.40;;;;;;;;;;2069260;28;20483;-80
2022/04/29 00:33:23;;;;;;;3.80;2.15;;;;;;;;;;2069895;28;20611;-80
2022/04/29 00:34:46;;;;;;;5.60;1.50;;;;;;;;;;2068087;28;20030;-80
2022/04/29 00:36:05;;;;;;;9.23;1.70;;;;;;;;;;2070161;28;20042;-80
2022/04/29 00:37:24;;;;;;;5.03;1.60;;;;;;;;;;2068898;28;20116;-80
2022/04/29 00:38:44;;;;;;;6.45;1.90;;;;;;;;;;2068117;28;20555;-80
2022/04/29 00:40:02;;;;;;;6.30;1.30;;;;;;;;;;2066195;28;20034;-81
2022/04/29 00:41:22;;;;;;;8.88;1.60;;;;;;;;;;2077147;28;20426;-80
2022/04/29 00:42:43;;;;;;;6.07;1.58;;;;;;;;;;2071505;28;20030;-81
2022/04/29 00:44:03;;;;;;;4.45;1.52;;;;;;;;;;2076325;28;20033;-81
2022/04/29 00:45:23;;;;;;;9.30;1.55;;;;;;;;;;2070869;28;20026;-82
2022/04/29 00:46:44;;;;;;;12.00;1.58;;;;;;;;;;2068997;28;20022;-80
2022/04/29 00:48:04;;;;;;;2.80;1.35;;;;;;;;;;2069237;28;20034;-80
2022/04/29 00:49:23;;;;;;;2.03;1.10;;;;;;;;;;2066612;28;20034;-80
2022/04/29 00:50:42;;;;;;;5.22;1.10;;;;;;;;;;2078284;28;20033;-80
2022/04/29 00:52:01;;;;;;;2.05;0.75;;;;;;;;;;2072901;28;20030;-80
2022/04/29 00:53:24;;;;;;;12.60;1.33;;;;;;;;;;2073416;28;20030;-81
2022/04/29 00:54:48;;;;;;;3.33;1.20;;;;;;;;;;2079307;28;20512;-81
2022/04/29 00:56:10;;;;;;;11.93;1.67;;;;;;;;;;2073151;28;20046;-80
2022/04/29 00:58:02;;;;;;;3.90;1.20;;;;;;;;;;2070705;28;20043;-80
2022/04/29 00:59:24;;;;;;;2.35;1.27;;;;;;;;;;2032849;29;20518;-81
2022/04/29 01:00:43;;;;;;;2.03;1.25;;;;;;;;;;2059713;28;20066;-81
2022/04/29 01:02:04;;;;;;;7.05;1.55;;;;;;;;;;2060471;28;20026;-81
2022/04/29 01:03:23;;;;;;;1.75;1.08;;;;;;;;;;2059778;28;20116;-81
2022/04/29 01:04:54;;;;;;;5.03;1.27;;;;;;;;;;2060505;28;20042;-82
2022/04/29 01:06:14;;;;;;;8.55;1.67;;;;;;;;;;2068432;28;20037;-81
2022/04/29 01:07:34;;;;;;;4.03;1.50;;;;;;;;;;2060481;28;20030;-83
2022/04/29 01:08:53;;;;;;;3.92;1.15;;;;;;;;;;2062459;28;20417;-81
2022/04/29 01:10:12;;;;;;;2.28;1.33;;;;;;;;;;2059059;28;20039;-80
2022/04/29 01:11:32;;;;;;;1.52;1.20;;;;;;;;;;2059460;28;20026;-82
2022/04/29 01:12:55;;;;;;;5.00;1.10;;;;;;;;;;2061521;28;20023;-80
2022/04/29 01:14:14;;;;;;;3.60;1.48;;;;;;;;;;2061038;28;20058;-80
2022/04/29 01:15:35;;;;;;;1.92;0.98;;;;;;;;;;2059893;28;20031;-82
2022/04/29 01:16:59;;;;;;;7.57;1.05;;;;;;;;;;2064255;28;20109;-81
2022/04/29 01:18:18;;;;;;;3.70;1.27;;;;;;;;;;2062531;28;20113;-80
2022/04/29 01:19:38;;;;;;;1.88;1.30;;;;;;;;;;2061016;28;20054;-80
2022/04/29 01:21:06;;;;;;;4.47;1.95;;;;;;;;;;2063542;28;20480;-81
2022/04/29 01:22:25;;;;;;;4.47;1.40;;;;;;;;;;2061204;28;20027;-80
2022/04/29 01:23:54;;;;;;;4.80;1.27;;;;;;;;;;2061017;28;20452;-80
2022/04/29 01:25:14;;;;;;;4.05;1.27;;;;;;;;;;2060514;28;20496;-81
2022/04/29 01:26:34;;;;;;;5.30;1.27;;;;;;;;;;2068618;28;20033;-80
2022/04/29 01:27:53;;;;;;;7.13;1.02;;;;;;;;;;2061918;28;20031;-81
2022/04/29 01:29:13;;;;;;;12.27;1.30;;;;;;;;;;2059251;28;20066;-81
2022/04/29 01:30:32;;;;;;;5.95;1.52;;;;;;;;;;2058292;28;20460;-80
2022/04/29 01:31:52;;;;;;;3.05;1.38;;;;;;;;;;2060743;28;20026;-81
2022/04/29 01:33:13;;;;;;;14.30;2.10;;;;;;;;;;2059474;28;20023;-80
2022/04/29 01:34:33;;;;;;;5.22;1.45;;;;;;;;;;2067179;28;20026;-80
2022/04/29 01:35:52;;;;;;;5.55;1.50;;;;;;;;;;2060760;28;20050;-80
2022/04/29 01:37:11;;;;;;;11.20;1.83;;;;;;;;;;2062288;28;20034;-81
2022/04/29 01:38:30;;;;;;;6.60;1.55;;;;;;;;;;2058794;28;20027;-80
2022/04/29 01:39:49;;;;;;;9.05;1.60;;;;;;;;;;2058272;28;20041;-80
2022/04/29 01:41:08;;;;;;;6.60;1.88;;;;;;;;;;2059052;28;20519;-80
2022/04/29 01:42:27;;;;;;;5.20;1.65;;;;;;;;;;2058482;28;20094;-80
2022/04/29 01:43:47;;;;;;;5.18;1.88;;;;;;;;;;2063324;28;20416;-81
2022/04/29 01:45:08;;;;;;;2.20;1.75;;;;;;;;;;2057609;28;20043;-80
2022/04/29 01:46:27;;;;;;;3.53;1.60;;;;;;;;;;2063001;28;20109;-80
2022/04/29 01:47:46;;;;;;;3.75;1.90;;;;;;;;;;2066843;28;20026;-84
2022/04/29 01:49:05;;;;;;;5.30;1.60;;;;;;;;;;2064727;28;20439;-80
2022/04/29 01:50:26;;;;;;;7.13;1.92;;;;;;;;;;2057583;28;20479;-81
2022/04/29 01:51:44;;;;;;;5.53;1.92;;;;;;;;;;2064539;28;20010;-80
2022/04/29 01:53:06;;;;;;;9.32;2.05;;;;;;;;;;2070105;28;20402;-79
2022/04/29 01:54:25;;;;;;;7.05;1.83;;;;;;;;;;2063441;28;20027;-81
2022/04/29 01:55:44;;;;;;;6.15;1.75;;;;;;;;;;2062219;28;20027;-80
2022/04/29 01:57:07;;;;;;;6.88;1.77;;;;;;;;;;2065862;28;20031;-81
2022/04/29 01:58:26;;;;;;;4.53;1.70;;;;;;;;;;2069737;28;20122;-81
2022/04/29 01:59:45;;;;;;;8.55;2.03;;;;;;;;;;2070536;28;20057;-81
2022/04/29 02:01:04;;;;;;;13.02;2.10;;;;;;;;;;2069354;28;20085;-80
2022/04/29 02:02:26;;;;;;;6.65;1.88;;;;;;;;;;2069038;28;20018;-80
2022/04/29 02:03:45;;;;;;;4.72;2.00;;;;;;;;;;2078927;28;20025;-80
2022/04/29 02:05:05;;;;;;;4.38;2.03;;;;;;;;;;2077226;28;20124;-82
2022/04/29 02:06:24;;;;;;;7.47;1.88;;;;;;;;;;2071800;28;20034;-79
2022/04/29 02:07:44;;;;;;;9.57;2.20;;;;;;;;;;2069730;28;20094;-81
2022/04/29 02:09:06;;;;;;;2.13;1.60;;;;;;;;;;2068730;28;20026;-81
2022/04/29 02:10:26;;;;;;;5.07;1.95;;;;;;;;;;2069470;28;20022;-81
2022/04/29 02:12:06;;;;;;;8.18;2.20;;;;;;;;;;2069181;28;20030;-81
2022/04/29 02:13:24;;;;;;;7.72;2.67;;;;;;;;;;2081761;28;20034;-81
2022/04/29 02:14:44;;;;;;;7.93;2.25;;;;;;;;;;2073380;28;20018;-79
2022/04/29 02:16:03;;;;;;;12.23;2.53;;;;;;;;;;2068462;28;20030;-83
2022/04/29 02:17:22;;;;;;;11.98;2.53;;;;;;;;;;2079562;28;20037;-81
2022/04/29 02:18:41;;;;;;;8.50;2.33;;;;;;;;;;2073390;28;20061;-82
2022/04/29 02:19:59;;;;;;;7.22;1.98;;;;;;;;;;2071643;28;20033;-81
2022/04/29 02:21:19;;;;;;;9.70;2.38;;;;;;;;;;2076260;28;20033;-81
2022/04/29 02:22:39;;;;;;;5.80;1.70;;;;;;;;;;2073660;28;20026;-81
2022/04/29 02:23:58;;;;;;;6.20;2.42;;;;;;;;;;2069536;28;20038;-81
2022/04/29 02:25:18;;;;;;;10.60;2.00;;;;;;;;;;2069868;28;20029;-81
2022/04/29 02:26:37;;;;;;;9.43;1.60;;;;;;;;;;2077626;28;20502;-84
2022/04/29 02:27:56;;;;;;;5.57;1.70;;;;;;;;;;2068869;28;20026;-79
2022/04/29 02:29:18;;;;;;;8.50;1.90;;;;;;;;;;2066456;28;20022;-80
2022/04/29 02:30:37;;;;;;;5.65;1.70;;;;;;;;;;2068687;28;20030;-80
2022/04/29 02:31:57;;;;;;;5.75;1.75;;;;;;;;;;2077307;28;20014;-82
2022/04/29 02:33:16;;;;;;;4.43;1.77;;;;;;;;;;2073401;28;20388;-81
2022/04/29 02:34:36;;;;;;;9.82;2.03;;;;;;;;;;2068909;28;20038;-82
2022/04/29 02:35:55;;;;;;;4.82;1.63;;;;;;;;;;2068363;28;20030;-79
2022/04/29 02:37:17;;;;;;;9.57;1.42;;;;;;;;;;2072855;28;20459;-80
2022/04/29 02:38:36;;;;;;;8.90;1.52;;;;;;;;;;2069716;28;20034;-80
2022/04/29 02:39:55;;;;;;;5.70;1.50;;;;;;;;;;2068440;28;20039;-80
2022/04/29 02:41:14;;;;;;;7.70;1.30;;;;;;;;;;2067112;28;20030;-80
2022/04/29 02:42:33;;;;;;;6.97;1.80;;;;;;;;;;2069855;28;20065;-80
2022/04/29 02:43:52;;;;;;;3.92;1.42;;;;;;;;;;2072803;28;20034;-81
2022/04/29 02:45:11;;;;;;;5.45;1.35;;;;;;;;;;2078764;28;20175;-80
2022/04/29 02:46:30;;;;;;;4.07;1.35;;;;;;;;;;2072272;28;20026;-79
2022/04/29 02:47:49;;;;;;;3.65;1.45;;;;;;;;;;2073320;28;20418;-81
2022/04/29 02:49:08;;;;;;;3.13;1.17;;;;;;;;;;2069561;28;20045;-80
2022/04/29 02:50:27;;;;;;;2.67;1.13;;;;;;;;;;2070856;28;20030;-80
2022/04/29 02:51:46;;;;;;;4.45;1.25;;;;;;;;;;2069147;28;20026;-81
2022/04/29 02:53:05;;;;;;;5.03;1.00;;;;;;;;;;2068957;28;20471;-79
2022/04/29 02:54:24;;;;;;;5.68;1.45;;;;;;;;;;2072644;28;20022;-80
2022/04/29 02:55:43;;;;;;;3.05;1.40;;;;;;;;;;2069231;28;20112;-80
2022/04/29 02:57:02;;;;;;;2.78;1.35;;;;;;;;;;2068877;28;20077;-80
2022/04/29 02:58:21;;;;;;;6.00;1.50;;;;;;;;;;2070201;28;20038;-80
2022/04/29 02:59:40;;;;;;;2.33;0.80;;;;;;;;;;2068197;28;20029;-80
2022/04/29 03:01:00;;;;;;;4.85;1.35;;;;;;;;;;2068905;28;20034;-80
2022/04/29 03:02:22;;;;;;;4.35;1.25;;;;;;;;;;2067756;28;20022;-81
2022/04/29 03:03:41;;;;;;;1.63;1.10;;;;;;;;;;2077759;28;20033;-80
2022/04/29 03:05:03;;;;;;;9.43;1.10;;;;;;;;;;2073531;28;20073;-80
2022/04/29 03:06:22;;;;;;;2.25;1.10;;;;;;;;;;2078229;28;20033;-80
2022/04/29 03:07:41;;;;;;;4.95;1.13;;;;;;;;;;2073622;28;20030;-80
2022/04/29 03:09:00;;;;;;;4.82;1.23;;;;;;;;;;2073407;28;20057;-80
2022/04/29 03:10:19;;;;;;;2.90;1.33;;;;;;;;;;2069569;28;20030;-80
2022/04/29 03:11:38;;;;;;;4.55;0.95;;;;;;;;;;2067476;28;20101;-80
2022/04/29 03:12:57;;;;;;;7.13;1.30;;;;;;;;;;2078279;28;20045;-79
2022/04/29 03:14:17;;;;;;;4.15;1.00;;;;;;;;;;2072348;28;20022;-80
2022/04/29 03:15:36;;;;;;;7.65;1.58;;;;;;;;;;2072028;28;20033;-80
2022/04/29 03:16:55;;;;;;;3.05;0.80;;;;;;;;;;2068611;28;20515;-82
2022/04/29 03:18:22;;;;;;;1.77;1.33;;;;;;;;;;2071145;28;20046;-81
2022/04/29 03:19:40;;;;;;;3.92;0.88;;;;;;;;;;2066855;28;20460;-80
2022/04/29 03:20:59;;;;;;;2.05;0.90;;;;;;;;;;2066496;28;20022;-79
2022/04/29 03:22:19;;;;;;;3.47;1.40;;;;;;;;;;2069232;28;20026;-80
2022/04/29 03:23:38;;;;;;;5.38;1.08;;;;;;;;;;2070860;28;20030;-80
2022/04/29 03:24:57;;;;;;;1.95;0.95;;;;;;;;;;2069399;28;20487;-81
2022/04/29 03:26:16;;;;;;;4.18;1.00;;;;;;;;;;2070310;28;20029;-79
2022/04/29 03:27:37;;;;;;;2.25;0.80;;;;;;;;;;2069343;28;20022;-81
2022/04/29 03:28:58;;;;;;;2.53;0.82;;;;;;;;;;2069770;28;20125;-81
2022/04/29 03:30:17;;;;;;;4.38;1.23;;;;;;;;;;2075077;28;20026;-79
2022/04/29 03:31:36;;;;;;;4.13;0.70;;;;;;;;;;2071265;28;20050;-80
2022/04/29 03:32:56;;;;;;;4.25;1.40;;;;;;;;;;2067673;28;20022;-80
2022/04/29 03:34:15;;;;;;;3.08;1.30;;;;;;;;;;2068771;28;20033;-79
2022/04/29 03:35:41;;;;;;;2.22;0.70;;;;;;;;;;2078056;28;20386;-80
2022/04/29 03:37:00;;;;;;;2.25;0.70;;;;;;;;;;2074888;28;20034;-80
2022/04/29 03:38:22;;;;;;;0.93;0.68;;;;;;;;;;2072393;28;20022;-82
2022/04/29 03:39:41;;;;;;;1.10;0.68;;;;;;;;;;2077012;28;20029;-80
2022/04/29 03:41:01;;;;;;;4.93;0.80;;;;;;;;;;2072204;28;20429;-80
2022/04/29 03:42:21;;;;;;;4.18;0.93;;;;;;;;;;2066193;28;20551;-81
2022/04/29 03:43:42;;;;;;;2.97;0.98;;;;;;;;;;2063311;28;20029;-81
2022/04/29 03:45:01;;;;;;;0.90;0.70;;;;;;;;;;2065491;28;20108;-79
2022/04/29 03:46:20;;;;;;;2.38;0.90;;;;;;;;;;2069224;28;20415;-80
2022/04/29 03:47:39;;;;;;;1.48;1.02;;;;;;;;;;2067751;28;20506;-80
2022/04/29 03:50:36;;;;;;;2.85;0.60;;;;;;;;;;2080658;28;20030;-80
2022/04/29 03:51:55;;;;;;;4.03;0.77;;;;;;;;;;2071191;28;20030;-81
2022/04/29 03:53:13;;;;;;;5.20;0.68;;;;;;;;;;2069090;28;20022;-80
2022/04/29 03:54:33;;;;;;;1.60;0.70;;;;;;;;;;2077647;28;20527;-80
2022/04/29 03:55:51;;;;;;;3.50;0.90;;;;;;;;;;2073512;28;20642;-79
2022/04/29 03:57:10;;;;;;;2.08;0.95;;;;;;;;;;2070409;28;20089;-80
2022/04/29 03:58:30;;;;;;;1.45;0.70;;;;;;;;;;2077537;28;20033;-80
2022/04/29 03:59:49;;;;;;;1.63;0.68;;;;;;;;;;2072318;28;20093;-80
2022/04/29 04:01:10;;;;;;;1.90;0.73;;;;;;;;;;2064180;28;20038;-79
2022/04/29 04:02:30;;;;;;;2.60;0.90;;;;;;;;;;2071414;28;20452;-80
2022/04/29 04:03:48;;;;;;;1.17;0.90;;;;;;;;;;2079831;28;20479;-79
2022/04/29 04:05:09;;;;;;;0.93;0.77;;;;;;;;;;2072427;28;20507;-80
2022/04/29 04:08:08;;;;;;;4.97;1.10;;;;;;;;;;2078949;28;20021;-80
2022/04/29 04:09:28;;;;;;;5.30;1.10;;;;;;;;;;2072179;28;20034;-80
2022/04/29 04:10:47;;;;;;;9.38;0.93;;;;;;;;;;2074368;28;20030;-79
2022/04/29 04:12:06;;;;;;;2.83;1.00;;;;;;;;;;2071477;28;20478;-80
2022/04/29 04:13:26;;;;;;;1.35;0.77;;;;;;;;;;2076955;28;20030;-80
2022/04/29 04:14:47;;;;;;;4.63;0.98;;;;;;;;;;2071634;28;20057;-80
2022/04/29 04:16:18;;;;;;;2.40;0.88;;;;;;;;;;2070590;28;20057;-80
2022/04/29 04:17:37;;;;;;;1.90;0.80;;;;;;;;;;2071129;28;20045;-80
2022/04/29 04:19:00;;;;;;;4.20;0.93;;;;;;;;;;2073399;28;20030;-80
2022/04/29 04:20:19;;;;;;;1.88;0.75;;;;;;;;;;2069291;28;20038;-79
2022/04/29 04:21:39;;;;;;;1.55;0.93;;;;;;;;;;2079056;28;20034;-79
2022/04/29 04:22:58;;;;;;;3.97;1.05;;;;;;;;;;2071548;28;20108;-80
2022/04/29 04:24:17;;;;;;;3.00;1.45;;;;;;;;;;2069986;28;20701;-81
2022/04/29 04:25:36;;;;;;;3.35;1.08;;;;;;;;;;2077961;28;20514;-79
2022/04/29 04:26:55;;;;;;;1.67;0.80;;;;;;;;;;2075275;28;20022;-80
2022/04/29 04:28:14;;;;;;;2.20;1.00;;;;;;;;;;2069035;28;20038;-80
2022/04/29 04:29:33;;;;;;;2.33;1.17;;;;;;;;;;2070802;28;20475;-80
2022/04/29 04:30:54;;;;;;;5.38;1.20;;;;;;;;;;2070837;28;20109;-80
2022/04/29 04:32:13;;;;;;;2.05;0.80;;;;;;;;;;2067458;28;20502;-81
2022/04/29 04:33:33;;;;;;;5.57;1.35;;;;;;;;;;2070720;28;20026;-80
2022/04/29 04:34:53;;;;;;;4.85;0.70;;;;;;;;;;2070322;28;20029;-81
2022/04/29 04:36:12;;;;;;;3.95;0.98;;;;;;;;;;2071243;28;20030;-81
2022/04/29 04:37:34;;;;;;;2.58;0.80;;;;;;;;;;2077956;28;20021;-80
2022/04/29 04:38:53;;;;;;;3.80;0.75;;;;;;;;;;2074132;28;20033;-80
2022/04/29 04:40:12;;;;;;;2.05;0.98;;;;;;;;;;2074623;28;20689;-80
2022/04/29 04:41:31;;;;;;;2.00;0.70;;;;;;;;;;2074822;28;20297;-81
2022/04/29 04:42:50;;;;;;;4.32;1.02;;;;;;;;;;2073234;28;20030;-80
2022/04/29 04:44:10;;;;;;;5.40;0.98;;;;;;;;;;2079066;28;20033;-81
2022/04/29 04:45:31;;;;;;;2.35;0.90;;;;;;;;;;2071998;28;20076;-80
2022/04/29 04:46:51;;;;;;;4.20;0.65;;;;;;;;;;2081287;28;20022;-83
2022/04/29 04:48:20;;;;;;;2.40;1.38;;;;;;;;;;2068507;28;20117;-81
2022/04/29 04:49:42;;;;;;;2.25;1.30;;;;;;;;;;2072946;28;20034;-81
2022/04/29 04:51:03;;;;;;;3.63;0.88;;;;;;;;;;2077428;28;20049;-83
2022/04/29 04:52:22;;;;;;;2.33;1.10;;;;;;;;;;2070680;28;20399;-83
2022/04/29 04:53:41;;;;;;;2.13;1.08;;;;;;;;;;2073914;28;20042;-82
2022/04/29 04:55:04;;;;;;;9.73;1.38;;;;;;;;;;2071501;28;20061;-82
2022/04/29 04:56:23;;;;;;;2.70;1.17;;;;;;;;;;2074580;28;20034;-84
2022/04/29 04:57:45;;;;;;;1.98;0.90;;;;;;;;;;2071881;28;20443;-82
2022/04/29 04:59:04;;;;;;;4.53;0.98;;;;;;;;;;2072344;28;20034;-85
2022/04/29 05:00:23;;;;;;;3.47;0.75;;;;;;;;;;2068763;28;20049;-84
2022/04/29 05:01:42;;;;;;;3.88;1.13;;;;;;;;;;2069726;28;20022;-81
2022/04/29 05:03:23;;;;;;;1.85;0.98;;;;;;;;;;2070315;28;20034;-82
2022/04/29 05:04:41;;;;;;;5.05;0.93;;;;;;;;;;2080670;28;20033;-82
2022/04/29 05:06:03;;;;;;;3.15;0.70;;;;;;;;;;2073626;28;20516;-81
2022/04/29 05:07:24;;;;;;;1.38;0.90;;;;;;;;;;2072020;28;20038;-83
2022/04/29 05:08:44;;;;;;;1.13;0.90;;;;;;;;;;2070040;28;20026;-82
2022/04/29 05:10:04;;;;;;;3.88;0.93;;;;;;;;;;2070144;28;20082;-84
2022/04/29 05:11:23;;;;;;;4.30;1.00;;;;;;;;;;2078009;28;20034;-81
2022/04/29 05:12:43;;;;;;;1.88;0.82;;;;;;;;;;2075676;28;20038;-83
2022/04/29 05:14:02;;;;;;;1.45;0.77;;;;;;;;;;2068876;28;20342;-83
2022/04/29 05:15:29;;;;;;;2.17;0.75;;;;;;;;;;2073448;28;20423;-82
2022/04/29 05:16:54;;;;;;;4.05;1.13;;;;;;;;;;2070511;28;20025;-84
2022/04/29 05:18:13;;;;;;;4.03;1.02;;;;;;;;;;2066598;28;20058;-82
2022/04/29 05:19:32;;;;;;;1.13;0.70;;;;;;;;;;2068511;28;20518;-83
2022/04/29 05:20:58;;;;;;;1.35;1.00;;;;;;;;;;2070401;28;20026;-83
2022/04/29 05:22:20;;;;;;;6.72;1.02;;;;;;;;;;2078341;28;20439;-82
2022/04/29 05:23:40;;;;;;;1.77;0.82;;;;;;;;;;2071052;28;20026;-82
2022/04/29 05:25:03;;;;;;;1.67;0.80;;;;;;;;;;2072603;28;20105;-83
2022/04/29 05:26:22;;;;;;;1.88;0.82;;;;;;;;;;2069716;28;20037;-81
2022/04/29 05:27:44;;;;;;;4.68;0.75;;;;;;;;;;2073772;28;20026;-81
2022/04/29 05:29:05;;;;;;;5.47;0.68;;;;;;;;;;2077123;28;20101;-81
2022/04/29 05:30:26;;;;;;;2.75;1.60;;;;;;;;;;2074588;28;20053;-81
2022/04/29 05:31:45;;;;;;;2.22;0.90;;;;;;;;;;2071048;28;20022;-81
2022/04/29 05:33:06;;;;;;;2.42;0.93;;;;;;;;;;2074098;28;20034;-82
2022/04/29 05:34:33;;;;;;;2.90;0.80;;;;;;;;;;2077546;28;20101;-82
2022/04/29 05:35:55;;;;;;;4.15;1.02;;;;;;;;;;2073666;28;20533;-81
2022/04/29 05:37:24;;;;;;;2.63;0.55;;;;;;;;;;2070887;28;20034;-81
2022/04/29 05:43:59;;;;;;;3.10;0.55;;;;;;;;;;2066005;28;20034;-82
2022/04/29 05:45:18;;;;;;;1.38;0.75;;;;;;;;;;2066332;28;20086;-82
2022/04/29 05:46:37;;;;;;;1.88;0.98;;;;;;;;;;2072544;28;20026;-81
2022/04/29 05:47:57;;;;;;;1.63;0.75;;;;;;;;;;2069558;28;20018;-81
2022/04/29 05:49:16;;;;;;;1.23;0.52;;;;;;;;;;2076774;28;20033;-82
2022/04/29 05:50:36;;;;;;;1.85;0.52;;;;;;;;;;2073711;28;20034;-82
2022/04/29 05:52:05;;;;;;;1.42;0.50;;;;;;;;;;2076125;28;20096;-83
2022/04/29 05:53:27;;;;;;;2.95;0.73;;;;;;;;;;2071103;28;20034;-82
2022/04/29 05:54:46;;;;;;;1.55;0.60;;;;;;;;;;2069539;28;20440;-81
2022/04/29 05:56:06;;;;;;;2.40;1.00;;;;;;;;;;2071892;28;20038;-81
2022/04/29 05:57:25;;;;;;;6.35;1.30;;;;;;;;;;2073538;28;20527;-81
2022/04/29 05:58:47;;;;;;;4.10;0.98;;;;;;;;;;2070464;28;20053;-81
2022/04/29 06:00:07;;;;;;;1.60;0.50;;;;;;;;;;2069665;28;20038;-81
2022/04/29 06:01:29;;;;;;;2.22;0.90;;;;;;;;;;2069590;28;20038;-80
2022/04/29 06:02:57;;;;;;;1.70;0.50;;;;;;;;;;2070217;28;20390;-81
2022/04/29 06:04:19;;;;;;;1.20;0.57;;;;;;;;;;2073062;28;20037;-80
2022/04/29 06:05:40;;;;;;;2.78;1.02;;;;;;;;;;2075169;28;20034;-82
2022/04/29 06:07:03;;;;;;;2.85;0.70;;;;;;;;;;2072894;28;20034;-81
2022/04/29 06:08:22;;;;;;;6.25;1.13;;;;;;;;;;2072341;28;20022;-81
2022/04/29 06:09:41;;;;;;;6.97;0.68;;;;;;;;;;2071409;28;20511;-81
2022/04/29 06:11:06;;;;;;;1.83;0.50;;;;;;;;;;2071939;28;20034;-81
2022/04/29 06:12:51;;;;;;;0.95;0.50;;;;;;;;;;2071528;28;20018;-81
2022/04/29 06:14:10;;;;;;;2.97;1.17;;;;;;;;;;2071517;28;20026;-81
2022/04/29 06:15:29;;;;;;;3.85;0.80;;;;;;;;;;2071717;28;20022;-82
2022/04/29 06:16:49;;;;;;;2.05;0.65;;;;;;;;;;2070252;28;20026;-82
2022/04/29 06:18:08;;;;;;;4.93;0.52;;;;;;;;;;2067745;28;20022;-81
2022/04/29 06:19:27;;;;;;;2.63;0.63;;;;;;;;;;2069535;28;20057;-80
2022/04/29 06:20:47;;;;;;;2.22;0.65;;;;;;;;;;2079543;28;20025;-82
2022/04/29 06:22:09;;;;;;;11.77;1.35;;;;;;;;;;2074169;28;20058;-81
2022/04/29 06:23:28;;;;;;;1.58;0.68;;;;;;;;;;2069825;28;20026;-81
2022/04/29 06:24:47;;;;;;;3.80;0.80;;;;;;;;;;2073157;28;20042;-80
2022/04/29 06:26:06;;;;;;;7.50;0.77;;;;;;;;;;2070954;28;20137;-81
2022/04/29 06:27:25;;;;;;;6.43;1.15;;;;;;;;;;2068571;28;20388;-80
2022/04/29 06:28:47;;;;;;;2.63;0.75;;;;;;;;;;2071132;28;20503;-80
2022/04/29 06:30:09;;;;;;;4.30;0.47;;;;;;;;;;2068928;28;20507;-82
2022/04/29 06:31:29;;;;;;;2.67;0.57;;;;;;;;;;2080406;28;20482;-81
2022/04/29 06:32:48;;;;;;;4.65;0.57;;;;;;;;;;2072344;28;20022;-81
2022/04/29 06:34:07;;;;;;;2.70;0.80;;;;;;;;;;2070901;28;20080;-82
2022/04/29 06:35:27;;;;;;;2.35;0.60;;;;;;;;;;2079083;28;20033;-81
2022/04/29 06:36:49;;;;;;;3.50;0.50;;;;;;;;;;2074199;28;20107;-81
2022/04/29 06:38:12;;;;;;;0.93;0.60;;;;;;;;;;2069437;28;20105;-81
2022/04/29 06:39:32;;;;;;;1.92;0.95;;;;;;;;;;2076589;28;20247;-81
2022/04/29 06:41:01;;;;;;;8.48;0.95;;;;;;;;;;2073784;28;20057;-80
2022/04/29 06:42:20;;;;;;;1.58;0.50;;;;;;;;;;2072502;28;20065;-81
2022/04/29 06:43:39;;;;;;;1.25;0.50;;;;;;;;;;2071855;28;20030;-80
2022/04/29 06:44:59;;;;;;;3.25;0.85;;;;;;;;;;2071096;28;20034;-81
2022/04/29 06:46:24;;;;;;;3.08;0.60;;;;;;;;;;2070870;28;20141;-80
2022/04/29 06:47:43;;;;;;;3.25;0.70;;;;;;;;;;2069415;28;20030;-81
2022/04/29 06:49:04;;;;;;;4.75;0.80;;;;;;;;;;2076361;28;20100;-80
2022/04/29 06:50:24;;;;;;;4.97;0.70;;;;;;;;;;2071547;28;20112;-80
2022/04/29 06:51:43;;;;;;;4.95;0.55;;;;;;;;;;2074022;28;20022;-80
2022/04/29 06:53:08;;;;;;;4.70;1.38;;;;;;;;;;2069956;28;20030;-82
2022/04/29 06:54:31;;;;;;;3.03;0.70;;;;;;;;;;2064628;28;20026;-80
2022/04/29 06:55:50;;;;;;;2.75;0.60;;;;;;;;;;2076425;28;20034;-81
2022/04/29 06:57:11;;;;;;;2.72;0.90;;;;;;;;;;2074291;28;20041;-80
2022/04/29 06:58:30;;;;;;;6.30;1.33;;;;;;;;;;2069588;28;20038;-81
2022/04/29 06:59:49;;;;;;;2.55;0.40;;;;;;;;;;2071968;28;20026;-80
2022/04/29 07:01:09;;;;;;;2.05;0.63;;;;;;;;;;2069707;28;20058;-81
2022/04/29 07:02:28;;;;;;;3.67;0.80;;;;;;;;;;2069058;28;20030;-80
2022/04/29 07:03:50;;;;;;;2.78;1.33;;;;;;;;;;2078845;28;20033;-82
2022/04/29 07:05:10;;;;;;;3.25;1.35;;;;;;;;;;2082344;28;20049;-80
2022/04/29 07:06:31;;;;;;;1.83;0.73;;;;;;;;;;2075027;28;20022;-79
2022/04/29 07:07:50;;;;;;;0.98;0.60;;;;;;;;;;2078905;28;20423;-80
2022/04/29 07:09:12;;;;;;;3.80;1.00;;;;;;;;;;2074443;28;20026;-81
2022/04/29 07:10:31;;;;;;;4.75;1.60;;;;;;;;;;2071504;28;20030;-80
2022/04/29 07:11:51;;;;;;;2.63;0.80;;;;;;;;;;2069878;28;20030;-83
2022/04/29 07:13:13;;;;;;;1.13;0.80;;;;;;;;;;2078523;28;20465;-81
2022/04/29 07:14:32;;;;;;;2.15;0.80;;;;;;;;;;2074594;28;20029;-80
2022/04/29 07:15:56;;;;;;;1.40;0.70;;;;;;;;;;2070035;28;20026;-80
2022/04/29 07:17:20;;;;;;;2.05;1.10;;;;;;;;;;2071345;28;20029;-81
2022/04/29 07:18:48;;;;;;;1.42;1.00;;;;;;;;;;2078911;28;20077;-81
2022/04/29 07:20:10;;;;;;;0.68;0.65;;;;;;;;;;2071693;28;20026;-80
2022/04/29 07:21:35;;;;;;;1.60;0.47;;;;;;;;;;2069016;28;20552;-80
2022/04/29 07:22:54;;;;;;;1.25;0.60;;;;;;;;;;2077314;28;20034;-81
2022/04/29 07:24:13;;;;;;;3.70;0.60;;;;;;;;;;2073011;28;20030;-81
2022/04/29 07:25:32;;;;;;;1.90;0.60;;;;;;;;;;2070503;28;20065;-80
2022/04/29 07:26:52;;;;;;;0.98;0.50;;;;;;;;;;2069972;28;20018;-80
2022/04/29 07:28:11;;;;;;;0.88;0.40;;;;;;;;;;2068641;28;20026;-80
2022/04/29 07:29:42;;;;;;;0.85;0.55;;;;;;;;;;2071105;28;20022;-81
2022/04/29 07:31:01;;;;;;;1.27;1.00;;;;;;;;;;2078364;28;20033;-81
2022/04/29 07:32:25;;;;;;;2.70;0.45;;;;;;;;;;2073606;28;20527;-81
2022/04/29 07:33:45;;;;;;;1.10;0.50;;;;;;;;;;2068254;28;20109;-81
2022/04/29 07:42:12;;;;;;;4.70;0.68;;;;;;;;;;2080635;28;20037;-81
2022/04/29 07:43:37;;;;;;;6.30;0.70;;;;;;;;;;2071171;28;20038;-81
2022/04/29 07:45:01;;;;;;;1.17;0.65;;;;;;;;;;2072524;28;20149;-81
2022/04/29 07:46:21;;;;;;;1.20;0.43;;;;;;;;;;2078224;28;20029;-81
2022/04/29 07:47:42;;;;;;;1.80;0.50;;;;;;;;;;2070602;28;20054;-81
2022/04/29 07:49:01;;;;;;;8.60;0.68;;;;;;;;;;2073519;28;20034;-81
2022/04/29 07:50:20;;;;;;;2.88;0.70;;;;;;;;;;2079079;28;20025;-81
2022/04/29 07:51:40;;;;;;;1.27;0.50;;;;;;;;;;2073157;28;20033;-81
2022/04/29 07:53:00;;;;;;;4.13;0.70;;;;;;;;;;2069789;28;20026;-81
2022/04/29 07:54:19;;;;;;;2.97;0.57;;;;;;;;;;2069194;28;20030;-81
2022/04/29 07:55:39;;;;;;;1.80;0.60;;;;;;;;;;2067546;28;20059;-84
2022/04/29 07:56:59;;;;;;;1.55;0.43;;;;;;;;;;2075487;28;20986;-82
2022/04/29 07:58:18;;;;;;;4.80;0.50;;;;;;;;;;2071378;28;20025;-80
2022/04/29 07:59:41;;;;;;;0.43;0.43;;;;;;;;;;2078027;28;20017;-80
2022/04/29 08:01:01;;;;;;;6.13;0.88;;;;;;;;;;2071916;28;20034;-81
2022/04/29 08:02:20;;;;;;;1.67;0.50;;;;;;;;;;2069209;28;20488;-80
2022/04/29 08:03:39;;;;;;;4.30;0.88;;;;;;;;;;2069971;28;20026;-81
2022/04/29 08:04:59;;;;;;;4.00;0.77;;;;;;;;;;2070901;28;20129;-81
2022/04/29 08:06:19;;;;;;;1.52;0.35;;;;;;;;;;2069854;28;20030;-80
2022/04/29 08:07:41;;;;;;;4.05;0.45;;;;;;;;;;2079972;28;20018;-80
2022/04/29 08:09:00;;;;;;;2.67;0.40;;;;;;;;;;2074147;28;20507;-80
2022/04/29 08:10:22;;;;;;;2.45;0.50;;;;;;;;;;2071401;28;20077;-80
2022/04/29 08:11:45;;;;;;;1.10;0.38;;;;;;;;;;2071188;28;20038;-79
2022/04/29 08:13:04;;;;;;;2.28;0.75;;;;;;;;;;2076986;28;20034;-79
2022/04/29 08:14:24;;;;;;;6.72;0.73;;;;;;;;;;2071124;28;20030;-80
2022/04/29 08:15:45;;;;;;;1.55;0.30;;;;;;;;;;2071789;28;20021;-80
2022/04/29 08:17:05;;;;;;;1.50;0.40;;;;;;;;;;2069375;28;20030;-80
2022/04/29 08:18:26;;;;;;;1.65;0.55;;;;;;;;;;2068329;28;20077;-81